Leland, Mississippi
Current Conditions -  °F | °C
As of 5:53 PM on Thursday 18 Dec 2014 (Local Time) from KGLH Reporting Station
Overcast Overcast  
Wind Chill: 50°   Ceiling: 3400
Heat Index: 50°   Visibility: 9mi
Dew Point: 44°   Wind: 5mph
Humidity: 80%   Direction: 40°NE
Pressure: 30.17"   Gusts: NA
Location:  33.4°N, 90.9°W
Report Text: KGLH 182353Z AUTO 04004KT 9SM OVC034 10/07 A3017 RMK AO2 SLP225 T01000067 10106 20089 51008
Loading
Personal Weather Stations






























Interactive Weather Map New forecast layout! Learn more

10-Day Weather Forecast

Advertisements
Track Severe Weather on mobile